Monatstabelle

Bitte in den Auwahlmenüs den gewünschte Zeiraum wählen und die Schaltfläche "Anfrage absenden" betätigen. Beginn der Aufzeichnung ist 2007 - Dezember. Vor diesem Zeitraum sind keine Daten verfügbar.

2017 - November

 

Datum Temperatur (°C) Luftdruck (hPa) Luftfeuchte (%) Regen
(l/m²)
Wind (km/h)
avg: min: max: avg: min: max: avg: min: max: avg: max:
01.11.2017 6,3 -0,5 10,5 1019,5 1017,8 1022,3 80 67 90 0,0 0,6 6,9
02.11.2017 9,9 3,2 16,3 1012,1 1010,1 1017,9 83 70 90 0,0 1,5 6,1
03.11.2017 7,6 3,4 14,3 1016,3 1011,8 1017,3 81 60 89 1,4 3,3 11,9
04.11.2017 10,7 6,4 15,1 1013,2 1012,2 1016,1 75 62 88 0,0 11,7 21,7
05.11.2017 10,1 3,5 15,1 1008,0 1005,2 1012,4 80 70 89 0,0 3,2 16,4
06.11.2017 6,8 6,4 10,1 1015,7 1009,8 1018,4 86 77 89 3,2 2,2 6,8
07.11.2017 8,1 6,6 10,7 1016,5 1015,2 1018,5 86 77 90 1,8 0,8 8,0
08.11.2017 6,9 6,7 7,4 1015,3 1013,8 1016,9 90 89 90 1,5 0,5 4,5
09.11.2017 6,6 2,9 9,7 1019,6 1016,7 1021,0 89 87 91 0,1 0,3 2,9
10.11.2017 6,3 4,0 11,3 1015,0 1011,8 1020,9 84 67 90 0,0 0,5 6,9
11.11.2017 7,4 3,5 10,9 1009,3 1005,1 1013,8 78 60 90 0,1 4,6 12,6
12.11.2017 7,4 5,6 8,6 999,7 994,6 1006,8 83 68 89 3,2 6,6 14,8
13.11.2017 4,5 3,8 8,7 1008,8 997,1 1014,1 73 60 75 0,0 18,0 24,1
14.11.2017 2,4 -2,0 8,0 1021,3 1014,0 1022,9 70 52 83 0,0 9,4 23,2
15.11.2017 1,2 -3,7 9,0 1023,8 1022,5 1025,4 81 59 89 0,0 1,9 8,9
16.11.2017 4,0 -1,5 5,5 1020,6 1019,5 1023,3 85 81 89 0,0 1,7 4,8
17.11.2017 4,7 2,7 5,3 1020,1 1019,4 1021,1 83 77 88 1,6 4,1 11,6
18.11.2017 5,2 2,6 10,7 1015,5 1013,1 1019,4 79 62 87 0,0 5,0 11,7
19.11.2017 4,2 2,0 6,7 1011,1 1009,6 1013,4 74 67 87 0,0 7,9 15,6
20.11.2017 4,7 3,4 9,1 1015,3 1011,9 1017,0 69 58 80 0,0 7,2 19,5
21.11.2017 7,3 2,7 10,4 1011,8 1011,2 1014,4 85 71 90 3,0 4,3 11,6
22.11.2017 7,5 2,9 17,1 1011,7 1010,6 1012,7 76 51 88 0,0 3,3 7,4
23.11.2017 0,5 -1,5 3,1 1014,1 1010,6 1016,0 89 83 90 0,0 0,4 5,6
24.11.2017 2,3 -2,5 5,1 1015,1 1013,6 1017,1 89 88 91 0,1 0,6 5,0
25.11.2017 7,7 2,2 13,2 1008,6 1003,4 1013,9 77 68 90 0,1 5,0 18,8
26.11.2017 2,9 0,0 7,9 1017,9 1010,9 1020,2 75 63 87 0,3 11,9 23,7
27.11.2017 1,9 -1,7 7,1 1019,0 1016,1 1022,3 68 51 79 0,0 10,0 17,5
28.11.2017 3,5 0,6 10,9 1008,5 1006,2 1015,8 66 44 76 0,0 2,8 11,9
29.11.2017 1,9 1,0 3,5 1004,4 1002,1 1006,2 89 76 89 3,3 0,1 5,3
30.11.2017 0,6 -0,9 4,1 1002,4 998,8 1006,4 87 78 90 0,8 4,7 8,7
avg. 5,4 1013,7 80   ---
  Summe Regen: 20,6  
 
Min-Datum 15.11.2017 12.11.2017 28.11.2017 --- ---
Min-Zeit 06:44 20:38 13:28 --- ---
Minimum -3,7 994,6 44 --- ---
 

Max-Datum

22.11.2017 15.11.2017 09.11.2017 29.11.2017 13.11.2017
Max-Zeit 13:22 09:18 08:40 05:06 11:38
Maximum 17,1 1025,4 91 3,3 24,1
 

 

  Letztes Jahr
gleiches Monat
Eistage max < 0°C 0 0
Frosttage min < 0°C 8 14
Sommertage max >=25°C 0 0
Heiße Tage max >=30°C 0 0

 

<<< nach oben >>>